createdAt,value
2023-09-03T00:03:12.655Z,100096.30
2023-09-03T00:13:37.753Z,100110.49
2023-09-03T00:24:01.974Z,100109.09
2023-09-03T00:34:26.277Z,100114.34
2023-09-03T00:44:51.085Z,100117.88
2023-09-03T00:55:15.592Z,100106.99
2023-09-03T01:05:39.376Z,100102.40
2023-09-03T01:16:10.205Z,100103.61
2023-09-03T01:26:53.511Z,100108.77
2023-09-03T01:37:17.595Z,100110.44
2023-09-03T01:48:08.934Z,100108.29
2023-09-03T01:58:37.416Z,100094.20
2023-09-03T02:09:01.116Z,100101.23
2023-09-03T02:19:26.164Z,100100.71
2023-09-03T02:29:50.295Z,100100.63
2023-09-03T02:40:14.599Z,100094.91
2023-09-03T02:50:40.882Z,100094.92
2023-09-03T03:01:16.185Z,100092.79
2023-09-03T03:11:40.609Z,100095.58
2023-09-03T03:22:05.346Z,100098.02
2023-09-03T03:32:29.798Z,100080.13
2023-09-03T03:42:54.731Z,100074.59
2023-09-03T03:53:19.082Z,100078.48
2023-09-03T04:03:44.891Z,100082.86
2023-09-03T04:14:08.631Z,100089.37
2023-09-03T04:24:33.772Z,100083.48
2023-09-03T04:34:58.127Z,100086.73
2023-09-03T04:45:24.482Z,100100.45
2023-09-03T04:55:48.900Z,100099.67
2023-09-03T05:06:17.254Z,100111.81
2023-09-03T05:16:42.709Z,100134.52
2023-09-03T05:27:08.090Z,100145.32
2023-09-03T05:37:32.713Z,100162.06
2023-09-03T05:47:56.739Z,100173.77
2023-09-03T05:58:21.522Z,100178.44
2023-09-03T06:08:46.741Z,100178.49
2023-09-03T06:19:10.745Z,100186.54
2023-09-03T06:29:40.263Z,100181.58
2023-09-03T06:40:05.240Z,100184.11
2023-09-03T06:50:29.600Z,100202.84
2023-09-03T07:00:56.142Z,100218.63
2023-09-03T07:11:21.710Z,100219.14
2023-09-03T07:21:46.233Z,100225.16
2023-09-03T07:32:10.801Z,100242.73
2023-09-03T07:42:35.152Z,100260.91
2023-09-03T07:53:02.312Z,100266.13
2023-09-03T08:03:34.123Z,100249.93
2023-09-03T08:14:00.383Z,100253.56
2023-09-03T08:24:24.429Z,100268.84
2023-09-03T08:34:48.616Z,100268.86
2023-09-03T08:45:13.926Z,100280.45
2023-09-03T08:55:38.380Z,100293.48
2023-09-03T09:06:06.971Z,100288.45
2023-09-03T09:16:31.701Z,100292.99
2023-09-03T09:26:56.030Z,100284.15
2023-09-03T09:37:21.365Z,100295.48
2023-09-03T09:47:47.610Z,100306.31
2023-09-03T09:58:13.894Z,100300.33
2023-09-03T10:08:39.451Z,100298.56
2023-09-03T10:19:11.758Z,100299.07
2023-09-03T10:29:37.483Z,100295.39
2023-09-03T10:40:18.313Z,100289.30
2023-09-03T10:50:49.805Z,100293.80
2023-09-03T11:01:31.712Z,100301.61
2023-09-03T11:12:03.254Z,100315.48
2023-09-03T11:22:28.861Z,100315.63
2023-09-03T11:32:53.287Z,100321.45
2023-09-03T11:43:17.775Z,100324.61
2023-09-03T11:53:43.618Z,100308.84
2023-09-03T12:04:07.970Z,100305.85
2023-09-03T12:14:33.074Z,100309.34
2023-09-03T12:25:05.732Z,100309.73
2023-09-03T12:35:30.102Z,100317.80
2023-09-03T12:45:54.453Z,100321.66
2023-09-03T12:56:18.938Z,100318.60
2023-09-03T13:06:43.198Z,100318.78
2023-09-03T13:17:07.937Z,100317.28
2023-09-03T13:27:32.418Z,100327.52
2023-09-03T13:37:56.798Z,100329.25
2023-09-03T13:48:22.608Z,100331.14
2023-09-03T13:58:47.152Z,100330.38
2023-09-03T14:09:13.214Z,100333.77
2023-09-03T14:19:37.381Z,100342.33
2023-09-03T14:30:01.712Z,100350.73
2023-09-03T14:40:25.694Z,100353.74
2023-09-03T14:50:50.364Z,100351.22
2023-09-03T15:01:21.580Z,100356.35
2023-09-03T15:11:47.407Z,100357.85
2023-09-03T15:22:12.101Z,100353.54
2023-09-03T15:32:36.340Z,100357.23
2023-09-03T15:43:00.640Z,100358.71
2023-09-03T15:53:26.964Z,100360.97
2023-09-03T16:03:51.420Z,100373.07
2023-09-03T16:14:15.624Z,100382.72
2023-09-03T16:24:43.170Z,100397.45
2023-09-03T16:35:09.279Z,100400.77
2023-09-03T16:45:33.277Z,100406.06
2023-09-03T16:55:58.810Z,100411.85
2023-09-03T17:06:23.461Z,100423.40
2023-09-03T17:16:47.892Z,100435.90
2023-09-03T17:27:12.970Z,100442.32
2023-09-03T17:37:38.614Z,100451.33
2023-09-03T17:48:03.270Z,100455.55
2023-09-03T17:58:31.853Z,100470.15
2023-09-03T18:08:56.346Z,100481.66
2023-09-03T18:19:20.278Z,100492.84
2023-09-03T18:29:49.837Z,100496.94
2023-09-03T18:40:14.437Z,100502.84
2023-09-03T18:50:38.398Z,100517.49
2023-09-03T19:01:06.533Z,100529.05
2023-09-03T19:11:36.540Z,100547.52
2023-09-03T19:22:01.142Z,100552.50
2023-09-03T19:32:25.187Z,100542.14
2023-09-03T19:42:53.526Z,100547.79
2023-09-03T19:53:18.230Z,100550.51
2023-09-03T20:03:42.710Z,100569.29
2023-09-03T20:14:07.153Z,100572.22
2023-09-03T20:24:31.583Z,100571.08
2023-09-03T20:34:56.330Z,100568.57
2023-09-03T20:45:23.972Z,100556.33
2023-09-03T20:55:53.137Z,100548.84
2023-09-03T21:06:17.266Z,100538.31
2023-09-03T21:16:41.731Z,100535.74
2023-09-03T21:27:06.013Z,100535.28
2023-09-03T21:37:30.715Z,100527.68
2023-09-03T21:47:54.973Z,100550.23
2023-09-03T21:58:18.438Z,100540.63
2023-09-03T22:08:43.110Z,100550.56
2023-09-03T22:19:24.023Z,100560.02
2023-09-03T22:29:49.986Z,100573.15
2023-09-03T22:40:15.096Z,100585.58
2023-09-03T22:50:39.171Z,100594.34
2023-09-03T23:01:03.984Z,100585.78
2023-09-03T23:11:28.665Z,100581.96
2023-09-03T23:21:53.167Z,100578.59
2023-09-03T23:32:16.787Z,100591.80
2023-09-03T23:42:41.665Z,100587.88
2023-09-03T23:53:06.111Z,100580.92
